sensor_id;sensor_type;location;lat;lon;timestamp;pressure;altitude;pressure_sealevel;temperature;humidity
22775;BME280;11554;51.106;3.684;2023-03-25T00:00:00;100240.62;;;8.36;100.0
22775;BME280;11554;51.106;3.684;2023-03-25T00:05:00;100244.23000000001;;;8.19;100.0
22775;BME280;11554;51.106;3.684;2023-03-25T00:10:00;100251.89;;;8.18;100.0
22775;BME280;11554;51.106;3.684;2023-03-25T00:15:00;100259.82;;;8.18;100.0
22775;BME280;11554;51.106;3.684;2023-03-25T00:20:00;100254.63;;;8.17;100.0
22775;BME280;11554;51.106;3.684;2023-03-25T00:25:00;100258.47;;;8.14;100.0
22775;BME280;11554;51.106;3.684;2023-03-25T00:30:00;100258.53;;;8.08;100.0
22775;BME280;11554;51.106;3.684;2023-03-25T00:35:00;100264.08;;;8.03;100.0
22775;BME280;11554;51.106;3.684;2023-03-25T00:40:00;100254.89;;;8.05;100.0
22775;BME280;11554;51.106;3.684;2023-03-25T00:45:00;100261.21;;;8.07;100.0
22775;BME280;11554;51.106;3.684;2023-03-25T00:50:00;100249.77;;;8.03;100.0
22775;BME280;11554;51.106;3.684;2023-03-25T00:55:00;100252.31;;;7.99;100.0
22775;BME280;11554;51.106;3.684;2023-03-25T01:00:00;100251.39;;;7.98;100.0
22775;BME280;11554;51.106;3.684;2023-03-25T01:05:00;100244.34;;;7.96;100.0
22775;BME280;11554;51.106;3.684;2023-03-25T01:10:00;100248.06999999999;;;8.01;100.0
22775;BME280;11554;51.106;3.684;2023-03-25T01:15:00;100246.65;;;8.03;100.0
22775;BME280;11554;51.106;3.684;2023-03-25T01:20:00;100241.76999999999;;;8.04;100.0
22775;BME280;11554;51.106;3.684;2023-03-25T01:25:00;100242.7;;;8.01;100.0
22775;BME280;11554;51.106;3.684;2023-03-25T01:30:00;100239.84;;;8.04;100.0
22775;BME280;11554;51.106;3.684;2023-03-25T01:35:00;100247.23;;;8.07;100.0
22775;BME280;11554;51.106;3.684;2023-03-25T01:40:00;100232.01000000001;;;8.06;100.0
22775;BME280;11554;51.106;3.684;2023-03-25T01:50:00;100223.17;;;8.06;100.0
22775;BME280;11554;51.106;3.684;2023-03-25T01:55:00;100219.39;;;8.06;100.0
22775;BME280;11554;51.106;3.684;2023-03-25T02:00:00;100217.98999999999;;;8.10;100.0
22775;BME280;11554;51.106;3.684;2023-03-25T02:05:01;100218.44;;;8.16;100.0
22775;BME280;11554;51.106;3.684;2023-03-25T02:10:01;100212.87999999999;;;8.21;100.0
22775;BME280;11554;51.106;3.684;2023-03-25T02:15:01;100211.55;;;8.19;100.0
22775;BME280;11554;51.106;3.684;2023-03-25T02:20:07;100224.2;;;8.24;100.0
22775;BME280;11554;51.106;3.684;2023-03-25T02:25:07;100214.34000000001;;;8.13;100.0
22775;BME280;11554;51.106;3.684;2023-03-25T02:35:03;100216.69;;;8.12;100.0
22775;BME280;11554;51.106;3.684;2023-03-25T02:40:01;100218.16;;;8.14;100.0
22775;BME280;11554;51.106;3.684;2023-03-25T02:45:01;100217.98999999999;;;8.13;100.0
22775;BME280;11554;51.106;3.684;2023-03-25T02:50:02;100214.73;;;8.12;100.0
22775;BME280;11554;51.106;3.684;2023-03-25T02:55:00;100210.02;;;8.12;100.0
22775;BME280;11554;51.106;3.684;2023-03-25T03:00:00;100206.02;;;8.12;100.0
22775;BME280;11554;51.106;3.684;2023-03-25T03:05:00;100196.11;;;8.14;100.0
22775;BME280;11554;51.106;3.684;2023-03-25T03:10:03;100196.53;;;8.12;100.0
22775;BME280;11554;51.106;3.684;2023-03-25T03:15:04;100201.19;;;8.11;100.0
22775;BME280;11554;51.106;3.684;2023-03-25T03:20:01;100195.31;;;8.08;100.0
22775;BME280;11554;51.106;3.684;2023-03-25T03:25:01;100184.83;;;8.08;100.0
22775;BME280;11554;51.106;3.684;2023-03-25T03:30:02;100194.62;;;8.06;100.0
22775;BME280;11554;51.106;3.684;2023-03-25T03:35:01;100198.28;;;8.07;100.0
22775;BME280;11554;51.106;3.684;2023-03-25T03:40:00;100197.06;;;8.05;100.0
22775;BME280;11554;51.106;3.684;2023-03-25T03:45:01;100203.28;;;8.07;100.0
22775;BME280;11554;51.106;3.684;2023-03-25T03:50:02;100212.61;;;8.05;100.0
22775;BME280;11554;51.106;3.684;2023-03-25T03:55:01;100213.94;;;8.08;100.0
22775;BME280;11554;51.106;3.684;2023-03-25T04:00:01;100218.82;;;8.08;100.0
22775;BME280;11554;51.106;3.684;2023-03-25T04:05:00;100236.41;;;8.06;100.0
22775;BME280;11554;51.106;3.684;2023-03-25T04:10:02;100229.06;;;7.99;100.0
22775;BME280;11554;51.106;3.684;2023-03-25T04:15:00;100230.22;;;7.94;100.0
22775;BME280;11554;51.106;3.684;2023-03-25T04:20:00;100239.71;;;7.94;100.0
22775;BME280;11554;51.106;3.684;2023-03-25T04:25:00;100243.7;;;7.95;100.0
22775;BME280;11554;51.106;3.684;2023-03-25T04:30:00;100254.64;;;7.88;100.0
22775;BME280;11554;51.106;3.684;2023-03-25T04:35:00;100253.78;;;7.79;100.0
22775;BME280;11554;51.106;3.684;2023-03-25T04:40:00;100257.2;;;7.71;100.0
22775;BME280;11554;51.106;3.684;2023-03-25T04:45:00;100256.04;;;7.63;100.0
22775;BME280;11554;51.106;3.684;2023-03-25T04:50:00;100262.77;;;7.62;100.0
22775;BME280;11554;51.106;3.684;2023-03-25T04:55:00;100268.47;;;7.66;100.0
22775;BME280;11554;51.106;3.684;2023-03-25T05:00:00;100255.2;;;7.58;100.0
22775;BME280;11554;51.106;3.684;2023-03-25T05:05:00;100256.8;;;7.55;100.0
22775;BME280;11554;51.106;3.684;2023-03-25T05:10:00;100266.41;;;7.48;100.0
22775;BME280;11554;51.106;3.684;2023-03-25T05:15:00;100276.25;;;7.40;100.0
22775;BME280;11554;51.106;3.684;2023-03-25T05:20:00;100288.01;;;7.38;100.0
22775;BME280;11554;51.106;3.684;2023-03-25T05:25:00;100282.92;;;7.34;100.0
22775;BME280;11554;51.106;3.684;2023-03-25T05:30:00;100281.74;;;7.39;100.0
22775;BME280;11554;51.106;3.684;2023-03-25T05:35:00;100284.69;;;7.45;100.0
22775;BME280;11554;51.106;3.684;2023-03-25T05:40:00;100291.8;;;7.50;100.0
22775;BME280;11554;51.106;3.684;2023-03-25T05:45:00;100297.08;;;7.55;100.0
22775;BME280;11554;51.106;3.684;2023-03-25T05:50:00;100300.79;;;7.59;100.0
22775;BME280;11554;51.106;3.684;2023-03-25T05:55:00;100295.67;;;7.65;100.0
22775;BME280;11554;51.106;3.684;2023-03-25T06:00:00;100291.36;;;7.59;100.0
22775;BME280;11554;51.106;3.684;2023-03-25T06:05:00;100303.99;;;7.61;100.0
22775;BME280;11554;51.106;3.684;2023-03-25T06:10:00;100296.61;;;7.70;100.0
22775;BME280;11554;51.106;3.684;2023-03-25T06:15:00;100302.76;;;7.81;100.0
22775;BME280;11554;51.106;3.684;2023-03-25T06:20:00;100310.23;;;7.92;100.0
22775;BME280;11554;51.106;3.684;2023-03-25T06:25:00;100311.37999999999;;;8.01;100.0
22775;BME280;11554;51.106;3.684;2023-03-25T06:30:00;100318.06;;;8.13;100.0
22775;BME280;11554;51.106;3.684;2023-03-25T06:35:00;100313.31;;;8.20;100.0
22775;BME280;11554;51.106;3.684;2023-03-25T06:40:00;100324.28;;;8.25;100.0
22775;BME280;11554;51.106;3.684;2023-03-25T06:45:00;100326.34000000001;;;8.34;100.0
22775;BME280;11554;51.106;3.684;2023-03-25T06:50:00;100327.19;;;8.49;100.0
22775;BME280;11554;51.106;3.684;2023-03-25T06:55:00;100331.73000000001;;;8.76;100.0
22775;BME280;11554;51.106;3.684;2023-03-25T07:00:00;100326.39;;;8.73;100.0
22775;BME280;11554;51.106;3.684;2023-03-25T07:05:00;100336.49;;;8.76;100.0
22775;BME280;11554;51.106;3.684;2023-03-25T07:10:00;100341.66;;;8.81;100.0
22775;BME280;11554;51.106;3.684;2023-03-25T07:15:00;100349.05;;;8.78;100.0
22775;BME280;11554;51.106;3.684;2023-03-25T07:20:00;100346.46;;;8.77;100.0
22775;BME280;11554;51.106;3.684;2023-03-25T07:25:00;100360.56999999999;;;8.87;100.0
22775;BME280;11554;51.106;3.684;2023-03-25T07:30:00;100367.66;;;8.99;100.0
22775;BME280;11554;51.106;3.684;2023-03-25T07:35:00;100366.56;;;9.11;100.0
22775;BME280;11554;51.106;3.684;2023-03-25T07:40:00;100375.42;;;9.09;100.0
22775;BME280;11554;51.106;3.684;2023-03-25T07:45:00;100380.02;;;9.03;100.0
22775;BME280;11554;51.106;3.684;2023-03-25T07:50:00;100382.96;;;8.96;100.0
22775;BME280;11554;51.106;3.684;2023-03-25T07:55:00;100386.25;;;8.93;100.0
22775;BME280;11554;51.106;3.684;2023-03-25T08:00:00;100390.8;;;8.94;100.0
22775;BME280;11554;51.106;3.684;2023-03-25T08:05:00;100391.47;;;9.04;100.0
22775;BME280;11554;51.106;3.684;2023-03-25T08:10:00;100402.47;;;9.28;100.0
22775;BME280;11554;51.106;3.684;2023-03-25T08:15:00;100398.41;;;9.35;100.0
22775;BME280;11554;51.106;3.684;2023-03-25T08:20:00;100408.83;;;9.51;100.0
22775;BME280;11554;51.106;3.684;2023-03-25T08:25:00;100411.95;;;9.91;100.0
22775;BME280;11554;51.106;3.684;2023-03-25T08:30:00;100417.01000000001;;;10.14;100.0
22775;BME280;11554;51.106;3.684;2023-03-25T08:35:00;100413.26000000001;;;10.14;100.0
22775;BME280;11554;51.106;3.684;2023-03-25T08:40:00;100427.78;;;10.14;100.0
22775;BME280;11554;51.106;3.684;2023-03-25T08:45:00;100428.57;;;10.11;100.0
22775;BME280;11554;51.106;3.684;2023-03-25T08:50:00;100451.86;;;10.20;100.0
22775;BME280;11554;51.106;3.684;2023-03-25T08:55:00;100438.79;;;10.59;100.0
22775;BME280;11554;51.106;3.684;2023-03-25T09:00:00;100447.36;;;11.07;97.78
22775;BME280;11554;51.106;3.684;2023-03-25T09:05:00;100447.76000000001;;;11.15;97.31
22775;BME280;11554;51.106;3.684;2023-03-25T09:10:00;100455.62999999999;;;11.14;94.38
22775;BME280;11554;51.106;3.684;2023-03-25T09:15:00;100453.64;;;11.45;93.52
22775;BME280;11554;51.106;3.684;2023-03-25T09:20:00;100456.45;;;12.20;92.51
22775;BME280;11554;51.106;3.684;2023-03-25T09:25:00;100448.08;;;12.93;89.54
22775;BME280;11554;51.106;3.684;2023-03-25T09:30:00;100468.25;;;12.49;88.39
22775;BME280;11554;51.106;3.684;2023-03-25T09:35:00;100477.45999999999;;;12.27;87.45
22775;BME280;11554;51.106;3.684;2023-03-25T09:40:00;100471.39;;;12.24;87.76
22775;BME280;11554;51.106;3.684;2023-03-25T09:45:03;100472.66;;;12.09;88.46
22775;BME280;11554;51.106;3.684;2023-03-25T09:50:02;100478.02;;;11.79;93.72
22775;BME280;11554;51.106;3.684;2023-03-25T09:55:01;100472.82;;;11.32;95.38
22775;BME280;11554;51.106;3.684;2023-03-25T10:00:00;100477.03;;;11.62;97.72
22775;BME280;11554;51.106;3.684;2023-03-25T10:05:03;100475.55;;;11.58;96.2
22775;BME280;11554;51.106;3.684;2023-03-25T10:10:02;100481.02;;;11.42;95.36
22775;BME280;11554;51.106;3.684;2023-03-25T10:15:03;100488.23;;;11.18;96.02
22775;BME280;11554;51.106;3.684;2023-03-25T10:20:00;100509.97;;;10.90;97.23
22775;BME280;11554;51.106;3.684;2023-03-25T10:25:01;100502.59;;;10.30;100.0
22775;BME280;11554;51.106;3.684;2023-03-25T10:30:02;100499.49;;;10.56;100.0
22775;BME280;11554;51.106;3.684;2023-03-25T10:35:00;100489.28;;;11.24;100.0
22775;BME280;11554;51.106;3.684;2023-03-25T10:40:08;100488.25;;;11.51;100.0
22775;BME280;11554;51.106;3.684;2023-03-25T10:45:00;100502.91;;;11.21;100.0
22775;BME280;11554;51.106;3.684;2023-03-25T10:50:00;100505.31;;;10.96;100.0
22775;BME280;11554;51.106;3.684;2023-03-25T10:55:00;100500.31;;;11.25;100.0
22775;BME280;11554;51.106;3.684;2023-03-25T11:00:02;100498.99;;;11.43;100.0
22775;BME280;11554;51.106;3.684;2023-03-25T11:05:01;100504.08;;;11.23;100.0
22775;BME280;11554;51.106;3.684;2023-03-25T11:15:00;100503.33;;;10.78;100.0
22775;BME280;11554;51.106;3.684;2023-03-25T11:20:03;100508.53;;;10.81;100.0
22775;BME280;11554;51.106;3.684;2023-03-25T11:25:00;100500.37999999999;;;11.25;99.75
22775;BME280;11554;51.106;3.684;2023-03-25T11:30:02;100501.19;;;11.50;98.9
22775;BME280;11554;51.106;3.684;2023-03-25T11:35:00;100502.01;;;11.64;97.45
22775;BME280;11554;51.106;3.684;2023-03-25T11:40:03;100512.94;;;11.51;96.42
22775;BME280;11554;51.106;3.684;2023-03-25T11:45:00;100502.36;;;11.91;95.14
22775;BME280;11554;51.106;3.684;2023-03-25T11:50:00;100513.45;;;12.10;93.43
22775;BME280;11554;51.106;3.684;2023-03-25T11:55:00;100508.65;;;11.62;92.59
22775;BME280;11554;51.106;3.684;2023-03-25T12:00:01;100518.9;;;11.68;92.35
22775;BME280;11554;51.106;3.684;2023-03-25T12:05:01;100519.55;;;12.39;92.3
22775;BME280;11554;51.106;3.684;2023-03-25T12:10:03;100518.12999999999;;;12.71;90.41
22775;BME280;11554;51.106;3.684;2023-03-25T12:15:04;100522.72;;;12.79;89.65
22775;BME280;11554;51.106;3.684;2023-03-25T12:20:02;100544.59000000001;;;12.74;89.32
22775;BME280;11554;51.106;3.684;2023-03-25T12:25:04;100545.42;;;12.77;89.97
22775;BME280;11554;51.106;3.684;2023-03-25T12:30:02;100539.09;;;12.91;90.75
22775;BME280;11554;51.106;3.684;2023-03-25T12:35:05;100533.18000000001;;;13.34;90.3
22775;BME280;11554;51.106;3.684;2023-03-25T12:40:05;100535.16;;;13.29;87.82
22775;BME280;11554;51.106;3.684;2023-03-25T12:45:11;100531.75;;;13.45;88.28
22775;BME280;11554;51.106;3.684;2023-03-25T12:50:03;100535.24;;;13.66;85.61
22775;BME280;11554;51.106;3.684;2023-03-25T12:55:03;100537.3;;;14.09;85.93
22775;BME280;11554;51.106;3.684;2023-03-25T13:00:03;100537.36;;;13.87;84.9
22775;BME280;11554;51.106;3.684;2023-03-25T13:05:03;100556.98999999999;;;13.69;86.18
22775;BME280;11554;51.106;3.684;2023-03-25T13:10:03;100559.25;;;14.02;86.58
22775;BME280;11554;51.106;3.684;2023-03-25T13:15:01;100544.2;;;14.10;82.23
22775;BME280;11554;51.106;3.684;2023-03-25T13:20:01;100552.81;;;13.59;84.25
22775;BME280;11554;51.106;3.684;2023-03-25T13:25:00;100549.44;;;14.10;82.25
22775;BME280;11554;51.106;3.684;2023-03-25T13:30:00;100552.37;;;15.38;79.31
22775;BME280;11554;51.106;3.684;2023-03-25T13:35:01;100555.95;;;15.68;77.08
22775;BME280;11554;51.106;3.684;2023-03-25T13:40:04;100569.9;;;14.58;78.9
22775;BME280;11554;51.106;3.684;2023-03-25T13:45:00;100562.44;;;14.22;80.05
22775;BME280;11554;51.106;3.684;2023-03-25T13:50:01;100568.24;;;13.45;85.25
22775;BME280;11554;51.106;3.684;2023-03-25T13:55:01;100589.94;;;12.68;91.78
22775;BME280;11554;51.106;3.684;2023-03-25T14:05:09;100577.45;;;12.95;93.64
22775;BME280;11554;51.106;3.684;2023-03-25T14:10:08;100571.34999999999;;;13.43;89.59
22775;BME280;11554;51.106;3.684;2023-03-25T14:15:01;100573.1;;;13.69;88.47
22775;BME280;11554;51.106;3.684;2023-03-25T14:20:00;100571.56999999999;;;14.18;85.91
22775;BME280;11554;51.106;3.684;2023-03-25T14:25:00;100591.45999999999;;;14.48;85.4
22775;BME280;11554;51.106;3.684;2023-03-25T14:30:01;100590.28;;;14.27;82.18
22775;BME280;11554;51.106;3.684;2023-03-25T14:40:01;100595.23000000001;;;14.74;80.97
22775;BME280;11554;51.106;3.684;2023-03-25T14:50:01;100599.92;;;13.78;84.86
22775;BME280;11554;51.106;3.684;2023-03-25T14:55:04;100604.81;;;13.42;85.46
22775;BME280;11554;51.106;3.684;2023-03-25T15:00:01;100599.89;;;13.66;88.18
22775;BME280;11554;51.106;3.684;2023-03-25T15:05:01;100606.61;;;14.02;84.51
22775;BME280;11554;51.106;3.684;2023-03-25T15:10:00;100603.24;;;14.24;83.5
22775;BME280;11554;51.106;3.684;2023-03-25T15:15:02;100588.31999999999;;;13.97;81.95
22775;BME280;11554;51.106;3.684;2023-03-25T15:25:00;100615.55;;;14.15;81.28
22775;BME280;11554;51.106;3.684;2023-03-25T15:30:02;100606.52;;;13.91;82.69
22775;BME280;11554;51.106;3.684;2023-03-25T15:35:04;100618.23000000001;;;13.72;84.04
22775;BME280;11554;51.106;3.684;2023-03-25T15:40:04;100622.06;;;13.86;83.66
22775;BME280;11554;51.106;3.684;2023-03-25T15:50:10;100617.97;;;14.60;78.89
22775;BME280;11554;51.106;3.684;2023-03-25T15:55:01;100651.92;;;13.88;81.77
22775;BME280;11554;51.106;3.684;2023-03-25T16:00:01;100639.59;;;13.73;81.43
22775;BME280;11554;51.106;3.684;2023-03-25T16:05:00;100645.0;;;13.42;83.66
22775;BME280;11554;51.106;3.684;2023-03-25T16:10:04;100640.22;;;13.21;84.63
22775;BME280;11554;51.106;3.684;2023-03-25T16:15:03;100654.08;;;12.87;84.96
22775;BME280;11554;51.106;3.684;2023-03-25T16:20:00;100656.38;;;12.71;84.53
22775;BME280;11554;51.106;3.684;2023-03-25T16:25:00;100671.98;;;12.74;85.16
22775;BME280;11554;51.106;3.684;2023-03-25T16:30:00;100674.58;;;12.66;86.09
22775;BME280;11554;51.106;3.684;2023-03-25T16:35:00;100668.24;;;12.63;86.63
22775;BME280;11554;51.106;3.684;2023-03-25T16:40:03;100678.67;;;12.34;88.34
22775;BME280;11554;51.106;3.684;2023-03-25T16:45:00;100686.0;;;12.19;89.85
22775;BME280;11554;51.106;3.684;2023-03-25T16:50:00;100691.79000000001;;;12.25;89.96
22775;BME280;11554;51.106;3.684;2023-03-25T17:00:02;100702.42;;;11.97;91.09
22775;BME280;11554;51.106;3.684;2023-03-25T17:05:10;100704.17;;;11.94;91.22
22775;BME280;11554;51.106;3.684;2023-03-25T17:10:00;100695.72;;;11.68;91.86
22775;BME280;11554;51.106;3.684;2023-03-25T17:15:02;100711.25;;;11.74;93.03
22775;BME280;11554;51.106;3.684;2023-03-25T17:20:01;100712.53;;;11.65;92.95
22775;BME280;11554;51.106;3.684;2023-03-25T17:25:11;100723.33;;;11.43;93.74
22775;BME280;11554;51.106;3.684;2023-03-25T17:35:01;100733.94;;;11.14;94.47
22775;BME280;11554;51.106;3.684;2023-03-25T17:40:00;100741.3;;;11.06;95.25
22775;BME280;11554;51.106;3.684;2023-03-25T17:45:00;100742.03;;;10.98;95.79
22775;BME280;11554;51.106;3.684;2023-03-25T17:50:02;100767.74;;;10.92;96.23
22775;BME280;11554;51.106;3.684;2023-03-25T17:55:00;100773.58;;;10.82;96.67
22775;BME280;11554;51.106;3.684;2023-03-25T18:00:00;100769.75;;;10.76;97.57
22775;BME280;11554;51.106;3.684;2023-03-25T18:05:00;100754.58;;;10.60;100.0
22775;BME280;11554;51.106;3.684;2023-03-25T18:10:00;100760.47;;;10.32;100.0
22775;BME280;11554;51.106;3.684;2023-03-25T18:15:00;100771.88;;;10.11;100.0
22775;BME280;11554;51.106;3.684;2023-03-25T18:20:00;100767.11;;;9.98;100.0
22775;BME280;11554;51.106;3.684;2023-03-25T18:25:00;100768.22;;;9.92;100.0
22775;BME280;11554;51.106;3.684;2023-03-25T18:30:00;100768.5;;;9.79;100.0
22775;BME280;11554;51.106;3.684;2023-03-25T18:35:00;100763.5;;;9.65;100.0
22775;BME280;11554;51.106;3.684;2023-03-25T18:40:00;100764.78;;;9.50;100.0
22775;BME280;11554;51.106;3.684;2023-03-25T18:45:00;100756.98;;;9.39;100.0
22775;BME280;11554;51.106;3.684;2023-03-25T18:50:00;100763.7;;;9.31;100.0
22775;BME280;11554;51.106;3.684;2023-03-25T18:55:00;100762.98000000001;;;9.21;100.0
22775;BME280;11554;51.106;3.684;2023-03-25T19:00:00;100771.23;;;9.15;100.0
22775;BME280;11554;51.106;3.684;2023-03-25T19:05:00;100771.23;;;9.06;100.0
22775;BME280;11554;51.106;3.684;2023-03-25T19:10:00;100761.56;;;8.99;100.0
22775;BME280;11554;51.106;3.684;2023-03-25T19:15:00;100759.66;;;8.96;100.0
22775;BME280;11554;51.106;3.684;2023-03-25T19:20:00;100764.08;;;8.92;100.0
22775;BME280;11554;51.106;3.684;2023-03-25T19:25:00;100760.55;;;8.89;100.0
22775;BME280;11554;51.106;3.684;2023-03-25T19:30:00;100761.25;;;8.81;100.0
22775;BME280;11554;51.106;3.684;2023-03-25T19:35:00;100762.93;;;8.77;100.0
22775;BME280;11554;51.106;3.684;2023-03-25T19:40:00;100766.6;;;8.68;100.0
22775;BME280;11554;51.106;3.684;2023-03-25T19:45:00;100771.91;;;8.59;100.0
22775;BME280;11554;51.106;3.684;2023-03-25T19:50:00;100771.31000000001;;;8.52;100.0
22775;BME280;11554;51.106;3.684;2023-03-25T19:55:00;100775.03;;;8.43;100.0
22775;BME280;11554;51.106;3.684;2023-03-25T20:00:00;100782.62;;;8.38;100.0
22775;BME280;11554;51.106;3.684;2023-03-25T20:05:00;100781.23000000001;;;8.29;100.0
22775;BME280;11554;51.106;3.684;2023-03-25T20:10:00;100778.65000000001;;;8.20;100.0
22775;BME280;11554;51.106;3.684;2023-03-25T20:15:00;100784.65;;;8.14;100.0
22775;BME280;11554;51.106;3.684;2023-03-25T20:20:00;100794.19;;;8.09;100.0
22775;BME280;11554;51.106;3.684;2023-03-25T20:25:00;100793.84999999999;;;8.02;100.0
22775;BME280;11554;51.106;3.684;2023-03-25T20:30:00;100794.81;;;7.91;100.0
22775;BME280;11554;51.106;3.684;2023-03-25T20:35:00;100790.20000000001;;;7.83;100.0
22775;BME280;11554;51.106;3.684;2023-03-25T20:40:00;100792.22;;;7.80;100.0
22775;BME280;11554;51.106;3.684;2023-03-25T20:45:00;100788.68;;;7.73;100.0
22775;BME280;11554;51.106;3.684;2023-03-25T20:50:00;100785.04000000001;;;7.69;100.0
22775;BME280;11554;51.106;3.684;2023-03-25T20:55:00;100772.76000000001;;;7.64;100.0
22775;BME280;11554;51.106;3.684;2023-03-25T21:00:00;100770.12;;;7.59;100.0
22775;BME280;11554;51.106;3.684;2023-03-25T21:05:00;100774.71;;;7.53;100.0
22775;BME280;11554;51.106;3.684;2023-03-25T21:10:00;100775.75;;;7.49;100.0
22775;BME280;11554;51.106;3.684;2023-03-25T21:15:00;100783.33;;;7.54;100.0
22775;BME280;11554;51.106;3.684;2023-03-25T21:20:00;100787.67;;;7.58;100.0
22775;BME280;11554;51.106;3.684;2023-03-25T21:25:00;100786.7;;;7.61;100.0
22775;BME280;11554;51.106;3.684;2023-03-25T21:30:00;100780.46;;;7.61;100.0
22775;BME280;11554;51.106;3.684;2023-03-25T21:35:00;100778.8;;;7.58;100.0
22775;BME280;11554;51.106;3.684;2023-03-25T21:40:00;100777.15;;;7.50;100.0
22775;BME280;11554;51.106;3.684;2023-03-25T21:45:00;100779.03;;;7.37;100.0
22775;BME280;11554;51.106;3.684;2023-03-25T21:50:00;100784.16;;;7.30;100.0
22775;BME280;11554;51.106;3.684;2023-03-25T21:55:00;100790.06000000001;;;7.25;100.0
22775;BME280;11554;51.106;3.684;2023-03-25T22:00:00;100789.54;;;7.22;100.0
22775;BME280;11554;51.106;3.684;2023-03-25T22:05:00;100788.11;;;7.20;100.0
22775;BME280;11554;51.106;3.684;2023-03-25T22:10:00;100790.61;;;7.18;100.0
22775;BME280;11554;51.106;3.684;2023-03-25T22:15:00;100784.84;;;7.13;100.0
22775;BME280;11554;51.106;3.684;2023-03-25T22:20:00;100780.98;;;7.12;100.0
22775;BME280;11554;51.106;3.684;2023-03-25T22:25:00;100772.17000000001;;;7.05;100.0
22775;BME280;11554;51.106;3.684;2023-03-25T22:30:00;100769.23000000001;;;6.96;100.0
22775;BME280;11554;51.106;3.684;2023-03-25T22:35:00;100760.94;;;6.93;100.0
22775;BME280;11554;51.106;3.684;2023-03-25T22:40:00;100755.53;;;6.98;100.0
22775;BME280;11554;51.106;3.684;2023-03-25T22:45:00;100751.51;;;7.02;100.0
22775;BME280;11554;51.106;3.684;2023-03-25T22:50:00;100747.56;;;7.10;100.0
22775;BME280;11554;51.106;3.684;2023-03-25T22:55:00;100743.93;;;7.22;100.0
22775;BME280;11554;51.106;3.684;2023-03-25T23:00:00;100745.86;;;7.32;100.0
22775;BME280;11554;51.106;3.684;2023-03-25T23:05:00;100738.42;;;7.42;100.0
22775;BME280;11554;51.106;3.684;2023-03-25T23:10:00;100740.62;;;7.57;100.0
22775;BME280;11554;51.106;3.684;2023-03-25T23:15:00;100734.63;;;7.68;100.0
22775;BME280;11554;51.106;3.684;2023-03-25T23:20:00;100736.77;;;7.68;100.0
22775;BME280;11554;51.106;3.684;2023-03-25T23:25:00;100737.33;;;7.67;100.0
22775;BME280;11554;51.106;3.684;2023-03-25T23:30:00;100730.75;;;7.72;100.0
22775;BME280;11554;51.106;3.684;2023-03-25T23:35:00;100727.26;;;7.76;100.0
22775;BME280;11554;51.106;3.684;2023-03-25T23:40:00;100718.83;;;7.83;100.0
22775;BME280;11554;51.106;3.684;2023-03-25T23:45:00;100705.42;;;7.88;100.0
22775;BME280;11554;51.106;3.684;2023-03-25T23:50:00;100703.17;;;7.93;100.0
22775;BME280;11554;51.106;3.684;2023-03-25T23:55:00;100688.89;;;7.95;100.0
